sensor_id;sensor_type;location;lat;lon;timestamp;pressure;altitude;pressure_sealevel;temperature;humidity
55914;BME280;58179;48.776;9.124;2022-10-10T00:01:13;97433.38;;;10.54;100.00
55914;BME280;58179;48.776;9.124;2022-10-10T00:03:39;97435.53;;;10.57;100.00
55914;BME280;58179;48.776;9.124;2022-10-10T00:06:06;97434.25;;;10.59;100.00
55914;BME280;58179;48.776;9.124;2022-10-10T00:08:32;97432.94;;;10.62;100.00
55914;BME280;58179;48.776;9.124;2022-10-10T00:10:58;97433.75;;;10.62;100.00
55914;BME280;58179;48.776;9.124;2022-10-10T00:13:24;97439.34;;;10.66;100.00
55914;BME280;58179;48.776;9.124;2022-10-10T00:15:51;97432.25;;;10.71;100.00
55914;BME280;58179;48.776;9.124;2022-10-10T00:18:17;97427.25;;;10.75;100.00
55914;BME280;58179;48.776;9.124;2022-10-10T00:20:43;97433.63;;;10.79;100.00
55914;BME280;58179;48.776;9.124;2022-10-10T00:23:09;97435.25;;;10.80;100.00
55914;BME280;58179;48.776;9.124;2022-10-10T00:25:36;97424.69;;;10.85;100.00
55914;BME280;58179;48.776;9.124;2022-10-10T00:28:03;97422.59;;;10.87;100.00
55914;BME280;58179;48.776;9.124;2022-10-10T00:30:30;97431.09;;;10.89;100.00
55914;BME280;58179;48.776;9.124;2022-10-10T00:32:58;97423.69;;;10.91;100.00
55914;BME280;58179;48.776;9.124;2022-10-10T00:35:25;97431.13;;;10.94;100.00
55914;BME280;58179;48.776;9.124;2022-10-10T00:37:51;97429.28;;;10.95;100.00
55914;BME280;58179;48.776;9.124;2022-10-10T00:40:17;97430.88;;;10.96;100.00
55914;BME280;58179;48.776;9.124;2022-10-10T00:42:43;97427.44;;;10.95;100.00
55914;BME280;58179;48.776;9.124;2022-10-10T00:45:24;97426.38;;;10.96;100.00
55914;BME280;58179;48.776;9.124;2022-10-10T00:47:55;97421.88;;;10.97;100.00
55914;BME280;58179;48.776;9.124;2022-10-10T00:50:24;97418.69;;;10.95;100.00
55914;BME280;58179;48.776;9.124;2022-10-10T00:52:51;97415.47;;;10.93;100.00
55914;BME280;58179;48.776;9.124;2022-10-10T00:55:17;97422.38;;;10.94;100.00
55914;BME280;58179;48.776;9.124;2022-10-10T00:57:43;97421.03;;;10.91;100.00
55914;BME280;58179;48.776;9.124;2022-10-10T01:00:10;97413.09;;;10.91;100.00
55914;BME280;58179;48.776;9.124;2022-10-10T01:02:37;97412.28;;;10.91;100.00
55914;BME280;58179;48.776;9.124;2022-10-10T01:05:03;97409.91;;;10.89;100.00
55914;BME280;58179;48.776;9.124;2022-10-10T01:07:31;97409.91;;;10.89;100.00
55914;BME280;58179;48.776;9.124;2022-10-10T01:10:02;97410.16;;;10.88;100.00
55914;BME280;58179;48.776;9.124;2022-10-10T01:12:37;97410.16;;;10.88;100.00
55914;BME280;58179;48.776;9.124;2022-10-10T01:15:11;97403.25;;;10.86;100.00
55914;BME280;58179;48.776;9.124;2022-10-10T01:17:44;97403.25;;;10.86;100.00
55914;BME280;58179;48.776;9.124;2022-10-10T01:21:01;97399.81;;;10.86;100.00
55914;BME280;58179;48.776;9.124;2022-10-10T01:23:55;97394.75;;;10.84;100.00
55914;BME280;58179;48.776;9.124;2022-10-10T01:27:20;97392.91;;;10.85;100.00
55914;BME280;58179;48.776;9.124;2022-10-10T01:29:53;97400.06;;;10.84;100.00
55914;BME280;58179;48.776;9.124;2022-10-10T01:32:28;97389.47;;;10.84;100.00
55914;BME280;58179;48.776;9.124;2022-10-10T01:35:11;97392.09;;;10.84;100.00
55914;BME280;58179;48.776;9.124;2022-10-10T01:37:47;97384.69;;;10.81;100.00
55914;BME280;58179;48.776;9.124;2022-10-10T01:40:24;97390.22;;;10.80;100.00
55914;BME280;58179;48.776;9.124;2022-10-10T01:42:54;97382.84;;;10.82;100.00
55914;BME280;58179;48.776;9.124;2022-10-10T01:45:24;97382.03;;;10.81;100.00
55914;BME280;58179;48.776;9.124;2022-10-10T01:47:53;97388.13;;;10.82;100.00
55914;BME280;58179;48.776;9.124;2022-10-10T01:50:22;97385.72;;;10.80;100.00
55914;BME280;58179;48.776;9.124;2022-10-10T01:53:05;97377.78;;;10.80;100.00
55914;BME280;58179;48.776;9.124;2022-10-10T01:55:52;97380.44;;;10.80;100.00
55914;BME280;58179;48.776;9.124;2022-10-10T01:58:38;97379.88;;;10.78;100.00
55914;BME280;58179;48.776;9.124;2022-10-10T02:01:16;97385.97;;;10.79;100.00
55914;BME280;58179;48.776;9.124;2022-10-10T02:03:53;97376.19;;;10.79;100.00
55914;BME280;58179;48.776;9.124;2022-10-10T02:06:27;97375.63;;;10.77;100.00
55914;BME280;58179;48.776;9.124;2022-10-10T02:09:00;97380.13;;;10.77;100.00
55914;BME280;58179;48.776;9.124;2022-10-10T02:11:28;97390.72;;;10.77;100.00
55914;BME280;58179;48.776;9.124;2022-10-10T02:14:03;97379.84;;;10.73;100.00
55914;BME280;58179;48.776;9.124;2022-10-10T02:16:36;97380.09;;;10.72;100.00
55914;BME280;58179;48.776;9.124;2022-10-10T02:19:06;97380.09;;;10.72;100.00
55914;BME280;58179;48.776;9.124;2022-10-10T02:21:34;97377.44;;;10.72;100.00
55914;BME280;58179;48.776;9.124;2022-10-10T02:24:04;97378.50;;;10.71;100.00
55914;BME280;58179;48.776;9.124;2022-10-10T02:26:33;97380.34;;;10.70;100.00
55914;BME280;58179;48.776;9.124;2022-10-10T02:29:05;97379.78;;;10.68;100.00
55914;BME280;58179;48.776;9.124;2022-10-10T02:31:38;97377.13;;;10.68;100.00
55914;BME280;58179;48.776;9.124;2022-10-10T02:34:11;97377.41;;;10.67;100.00
55914;BME280;58179;48.776;9.124;2022-10-10T02:36:38;97378.69;;;10.64;100.00
55914;BME280;58179;48.776;9.124;2022-10-10T02:39:06;97379.75;;;10.63;100.00
55914;BME280;58179;48.776;9.124;2022-10-10T02:41:33;97375.75;;;10.61;100.00
55914;BME280;58179;48.776;9.124;2022-10-10T02:44:00;97374.19;;;10.60;100.00
55914;BME280;58179;48.776;9.124;2022-10-10T02:46:27;97376.25;;;10.58;100.00
55914;BME280;58179;48.776;9.124;2022-10-10T02:48:54;97372.25;;;10.55;100.00
55914;BME280;58179;48.776;9.124;2022-10-10T02:51:20;97373.81;;;10.51;100.00
55914;BME280;58179;48.776;9.124;2022-10-10T02:53:46;97375.13;;;10.48;100.00
55914;BME280;58179;48.776;9.124;2022-10-10T02:56:12;97378.25;;;10.45;100.00
55914;BME280;58179;48.776;9.124;2022-10-10T02:58:38;97376.69;;;10.44;100.00
55914;BME280;58179;48.776;9.124;2022-10-10T03:01:04;97368.19;;;10.42;100.00
55914;BME280;58179;48.776;9.124;2022-10-10T03:03:30;97376.13;;;10.42;100.00
55914;BME280;58179;48.776;9.124;2022-10-10T03:05:57;97371.31;;;10.39;100.00
55914;BME280;58179;48.776;9.124;2022-10-10T03:08:23;97376.09;;;10.37;100.00
55914;BME280;58179;48.776;9.124;2022-10-10T03:10:58;97377.94;;;10.37;100.00
55914;BME280;58179;48.776;9.124;2022-10-10T03:13:24;97381.38;;;10.37;100.00
55914;BME280;58179;48.776;9.124;2022-10-10T03:15:51;97375.00;;;10.38;100.00
55914;BME280;58179;48.776;9.124;2022-10-10T03:18:18;97377.41;;;10.40;100.00
55914;BME280;58179;48.776;9.124;2022-10-10T03:20:44;97376.09;;;10.37;100.00
55914;BME280;58179;48.776;9.124;2022-10-10T03:23:12;97375.81;;;10.39;100.00
55914;BME280;58179;48.776;9.124;2022-10-10T03:25:40;97375.81;;;10.39;100.00
55914;BME280;58179;48.776;9.124;2022-10-10T03:28:06;97377.41;;;10.40;100.00
55914;BME280;58179;48.776;9.124;2022-10-10T03:30:32;97372.91;;;10.40;100.00
55914;BME280;58179;48.776;9.124;2022-10-10T03:32:58;97375.56;;;10.40;100.00
55914;BME280;58179;48.776;9.124;2022-10-10T03:35:24;97367.63;;;10.40;100.00
55914;BME280;58179;48.776;9.124;2022-10-10T03:37:50;97370.03;;;10.42;100.00
55914;BME280;58179;48.776;9.124;2022-10-10T03:40:17;97370.84;;;10.42;100.00
55914;BME280;58179;48.776;9.124;2022-10-10T03:42:43;97373.47;;;10.42;100.00
55914;BME280;58179;48.776;9.124;2022-10-10T03:45:09;97373.22;;;10.44;100.00
55914;BME280;58179;48.776;9.124;2022-10-10T03:47:35;97372.97;;;10.45;100.00
55914;BME280;58179;48.776;9.124;2022-10-10T03:50:01;97366.09;;;10.44;100.00
55914;BME280;58179;48.776;9.124;2022-10-10T03:52:27;97367.66;;;10.45;100.00
55914;BME280;58179;48.776;9.124;2022-10-10T03:54:53;97366.09;;;10.44;100.00
55914;BME280;58179;48.776;9.124;2022-10-10T03:57:20;97362.66;;;10.44;100.00
55914;BME280;58179;48.776;9.124;2022-10-10T03:59:46;97365.28;;;10.44;100.00
55914;BME280;58179;48.776;9.124;2022-10-10T04:02:12;97367.38;;;10.42;100.00
55914;BME280;58179;48.776;9.124;2022-10-10T04:04:37;97357.59;;;10.42;100.00
55914;BME280;58179;48.776;9.124;2022-10-10T04:07:03;97364.72;;;10.42;100.00
55914;BME280;58179;48.776;9.124;2022-10-10T04:09:29;97367.94;;;10.44;100.00
55914;BME280;58179;48.776;9.124;2022-10-10T04:11:55;97363.44;;;10.44;100.00
55914;BME280;58179;48.776;9.124;2022-10-10T04:14:23;97368.22;;;10.47;100.00
55914;BME280;58179;48.776;9.124;2022-10-10T04:16:48;97367.19;;;10.48;100.00
55914;BME280;58179;48.776;9.124;2022-10-10T04:19:14;97373.50;;;10.47;100.00
55914;BME280;58179;48.776;9.124;2022-10-10T04:21:40;97379.38;;;10.50;100.00
55914;BME280;58179;48.776;9.124;2022-10-10T04:24:06;97369.06;;;10.53;100.00
55914;BME280;58179;48.776;9.124;2022-10-10T04:26:32;97360.94;;;10.60;100.00
55914;BME280;58179;48.776;9.124;2022-10-10T04:28:58;97356.41;;;10.60;100.00
55914;BME280;58179;48.776;9.124;2022-10-10T04:31:25;97357.22;;;10.61;100.00
55914;BME280;58179;48.776;9.124;2022-10-10T04:33:51;97365.72;;;10.63;100.00
55914;BME280;58179;48.776;9.124;2022-10-10T04:36:17;97355.38;;;10.61;100.00
55914;BME280;58179;48.776;9.124;2022-10-10T04:38:43;97355.97;;;10.68;100.00
55914;BME280;58179;48.776;9.124;2022-10-10T04:41:09;97359.41;;;10.69;100.00
55914;BME280;58179;48.776;9.124;2022-10-10T04:43:35;97358.59;;;10.68;100.00
55914;BME280;58179;48.776;9.124;2022-10-10T04:46:01;97358.59;;;10.68;100.00
55914;BME280;58179;48.776;9.124;2022-10-10T04:48:28;97361.59;;;10.77;100.00
55914;BME280;58179;48.776;9.124;2022-10-10T04:50:57;97357.34;;;10.76;100.00
55914;BME280;58179;48.776;9.124;2022-10-10T04:53:23;97343.31;;;10.75;100.00
55914;BME280;58179;48.776;9.124;2022-10-10T04:55:49;97341.75;;;10.74;100.00
55914;BME280;58179;48.776;9.124;2022-10-10T04:58:15;97345.97;;;10.75;100.00
55914;BME280;58179;48.776;9.124;2022-10-10T05:00:41;97356.53;;;10.75;100.00
55914;BME280;58179;48.776;9.124;2022-10-10T05:03:08;97351.31;;;10.80;100.00
55914;BME280;58179;48.776;9.124;2022-10-10T05:05:38;97345.81;;;10.87;100.00
55914;BME280;58179;48.776;9.124;2022-10-10T05:08:04;97353.75;;;10.87;100.00
55914;BME280;58179;48.776;9.124;2022-10-10T05:10:34;97347.91;;;10.90;100.00
55914;BME280;58179;48.776;9.124;2022-10-10T05:13:01;97353.22;;;10.90;100.00
55914;BME280;58179;48.776;9.124;2022-10-10T05:15:27;97355.09;;;10.90;100.00
55914;BME280;58179;48.776;9.124;2022-10-10T05:17:53;97350.84;;;10.89;100.00
55914;BME280;58179;48.776;9.124;2022-10-10T05:20:19;97356.94;;;10.89;100.00
55914;BME280;58179;48.776;9.124;2022-10-10T05:22:46;97361.44;;;10.89;100.00
55914;BME280;58179;48.776;9.124;2022-10-10T05:25:12;97365.69;;;10.90;100.00
55914;BME280;58179;48.776;9.124;2022-10-10T05:27:38;97354.53;;;10.88;100.00
55914;BME280;58179;48.776;9.124;2022-10-10T05:30:07;97362.50;;;10.88;100.00
55914;BME280;58179;48.776;9.124;2022-10-10T05:32:33;97366.75;;;10.89;100.00
55914;BME280;58179;48.776;9.124;2022-10-10T05:34:59;97360.66;;;10.88;100.00
55914;BME280;58179;48.776;9.124;2022-10-10T05:37:25;97359.31;;;10.91;100.00
55914;BME280;58179;48.776;9.124;2022-10-10T05:39:52;97370.72;;;10.91;100.00
55914;BME280;58179;48.776;9.124;2022-10-10T05:42:18;97371.81;;;10.95;100.00
55914;BME280;58179;48.776;9.124;2022-10-10T05:44:43;97370.50;;;10.98;100.00
55914;BME280;58179;48.776;9.124;2022-10-10T05:47:09;97385.06;;;10.95;100.00
55914;BME280;58179;48.776;9.124;2022-10-10T05:49:35;97376.59;;;10.98;100.00
55914;BME280;58179;48.776;9.124;2022-10-10T05:52:01;97384.84;;;11.02;100.00
55914;BME280;58179;48.776;9.124;2022-10-10T05:54:27;97378.78;;;11.06;100.00
55914;BME280;58179;48.776;9.124;2022-10-10T05:56:54;97369.03;;;11.12;100.00
55914;BME280;58179;48.776;9.124;2022-10-10T05:59:20;97365.84;;;11.15;100.00
55914;BME280;58179;48.776;9.124;2022-10-10T06:01:46;97373.56;;;11.16;100.00
55914;BME280;58179;48.776;9.124;2022-10-10T06:04:12;97373.06;;;11.19;100.00
55914;BME280;58179;48.776;9.124;2022-10-10T06:06:38;97370.44;;;11.24;100.00
55914;BME280;58179;48.776;9.124;2022-10-10T06:09:04;97373.63;;;11.27;100.00
55914;BME280;58179;48.776;9.124;2022-10-10T06:11:30;97373.88;;;11.25;100.00
55914;BME280;58179;48.776;9.124;2022-10-10T06:13:57;97374.94;;;11.24;100.00
55914;BME280;58179;48.776;9.124;2022-10-10T06:16:25;97386.59;;;11.28;100.00
55914;BME280;58179;48.776;9.124;2022-10-10T06:18:51;97384.81;;;11.34;100.00
55914;BME280;58179;48.776;9.124;2022-10-10T06:21:18;97384.81;;;11.39;100.00
55914;BME280;58179;48.776;9.124;2022-10-10T06:23:44;97392.56;;;11.45;100.00
55914;BME280;58179;48.776;9.124;2022-10-10T06:26:11;97386.19;;;11.46;100.00
55914;BME280;58179;48.776;9.124;2022-10-10T06:28:36;97396.31;;;11.49;100.00
55914;BME280;58179;48.776;9.124;2022-10-10T06:31:06;97402.69;;;11.58;100.00
55914;BME280;58179;48.776;9.124;2022-10-10T06:33:33;97406.19;;;11.64;100.00
55914;BME280;58179;48.776;9.124;2022-10-10T06:36:04;97408.31;;;11.67;100.00
55914;BME280;58179;48.776;9.124;2022-10-10T06:38:30;97404.88;;;11.67;100.00
55914;BME280;58179;48.776;9.124;2022-10-10T06:41:01;97408.88;;;11.69;100.00
55914;BME280;58179;48.776;9.124;2022-10-10T06:43:27;97403.88;;;11.73;100.00
55914;BME280;58179;48.776;9.124;2022-10-10T06:45:52;97414.72;;;11.71;100.00
55914;BME280;58179;48.776;9.124;2022-10-10T06:48:20;97416.56;;;11.71;100.00
55914;BME280;58179;48.776;9.124;2022-10-10T06:50:56;97419.22;;;11.71;100.00
55914;BME280;58179;48.776;9.124;2022-10-10T06:53:22;97419.22;;;11.71;100.00
55914;BME280;58179;48.776;9.124;2022-10-10T06:55:47;97417.66;;;11.75;100.00
55914;BME280;58179;48.776;9.124;2022-10-10T06:58:13;97418.78;;;11.84;100.00
55914;BME280;58179;48.776;9.124;2022-10-10T07:00:39;97429.97;;;11.96;100.00
55914;BME280;58179;48.776;9.124;2022-10-10T07:03:05;97415.91;;;11.95;100.00
55914;BME280;58179;48.776;9.124;2022-10-10T07:05:32;97423.88;;;11.95;100.00
55914;BME280;58179;48.776;9.124;2022-10-10T07:07:58;97428.41;;;12.00;100.00
55914;BME280;58179;48.776;9.124;2022-10-10T07:10:24;97424.16;;;11.99;100.00
55914;BME280;58179;48.776;9.124;2022-10-10T07:12:50;97425.22;;;12.03;100.00
55914;BME280;58179;48.776;9.124;2022-10-10T07:15:16;97422.06;;;12.06;100.00
55914;BME280;58179;48.776;9.124;2022-10-10T07:17:42;97429.81;;;12.18;100.00
55914;BME280;58179;48.776;9.124;2022-10-10T07:20:08;97432.47;;;12.18;100.00
55914;BME280;58179;48.776;9.124;2022-10-10T07:22:35;97430.63;;;12.23;100.00
55914;BME280;58179;48.776;9.124;2022-10-10T07:25:02;97443.38;;;12.26;100.00
55914;BME280;58179;48.776;9.124;2022-10-10T07:27:27;97434.03;;;12.19;100.00
55914;BME280;58179;48.776;9.124;2022-10-10T07:29:53;97435.66;;;12.20;100.00
55914;BME280;58179;48.776;9.124;2022-10-10T07:32:19;97447.59;;;12.17;100.00
55914;BME280;58179;48.776;9.124;2022-10-10T07:34:45;97443.66;;;12.25;100.00
55914;BME280;58179;48.776;9.124;2022-10-10T07:37:11;97446.84;;;12.32;100.00
55914;BME280;58179;48.776;9.124;2022-10-10T07:39:38;97445.53;;;12.34;100.00
55914;BME280;58179;48.776;9.124;2022-10-10T07:42:04;97448.19;;;12.34;100.00
55914;BME280;58179;48.776;9.124;2022-10-10T07:44:32;97450.06;;;12.39;100.00
55914;BME280;58179;48.776;9.124;2022-10-10T07:46:59;97461.75;;;12.38;100.00
55914;BME280;58179;48.776;9.124;2022-10-10T07:49:25;97457.78;;;12.46;100.00
55914;BME280;58179;48.776;9.124;2022-10-10T07:51:50;97462.84;;;12.52;100.00
55914;BME280;58179;48.776;9.124;2022-10-10T07:54:16;97460.44;;;12.56;100.00
55914;BME280;58179;48.776;9.124;2022-10-10T07:56:44;97465.78;;;12.61;100.00
55914;BME280;58179;48.776;9.124;2022-10-10T07:59:09;97459.72;;;12.70;100.00
55914;BME280;58179;48.776;9.124;2022-10-10T08:01:35;97470.09;;;12.87;100.00
55914;BME280;58179;48.776;9.124;2022-10-10T08:04:01;97469.28;;;12.87;100.00
55914;BME280;58179;48.776;9.124;2022-10-10T08:06:27;97474.59;;;12.82;100.00
55914;BME280;58179;48.776;9.124;2022-10-10T08:08:53;97470.88;;;12.83;100.00
55914;BME280;58179;48.776;9.124;2022-10-10T08:11:20;97475.44;;;12.97;100.00
55914;BME280;58179;48.776;9.124;2022-10-10T08:13:48;97473.56;;;12.98;100.00
55914;BME280;58179;48.776;9.124;2022-10-10T08:16:15;97477.31;;;13.07;100.00
55914;BME280;58179;48.776;9.124;2022-10-10T08:18:41;97481.88;;;13.22;100.00
55914;BME280;58179;48.776;9.124;2022-10-10T08:21:10;97477.81;;;13.09;100.00
55914;BME280;58179;48.776;9.124;2022-10-10T08:23:36;97479.66;;;13.08;100.00
55914;BME280;58179;48.776;9.124;2022-10-10T08:26:06;97475.72;;;13.06;100.00
55914;BME280;58179;48.776;9.124;2022-10-10T08:28:33;97476.25;;;13.08;100.00
55914;BME280;58179;48.776;9.124;2022-10-10T08:31:04;97466.94;;;13.10;100.00
55914;BME280;58179;48.776;9.124;2022-10-10T08:33:30;97473.34;;;13.14;100.00
55914;BME280;58179;48.776;9.124;2022-10-10T08:35:56;97476.53;;;13.22;100.00
55914;BME280;58179;48.776;9.124;2022-10-10T08:38:22;97479.47;;;13.30;100.00
55914;BME280;58179;48.776;9.124;2022-10-10T08:40:50;97474.41;;;13.49;100.00
55914;BME280;58179;48.776;9.124;2022-10-10T08:43:23;97470.69;;;13.50;100.00
55914;BME280;58179;48.776;9.124;2022-10-10T08:45:52;97478.16;;;13.53;100.00
55914;BME280;58179;48.776;9.124;2022-10-10T08:48:24;97469.88;;;13.60;100.00
55914;BME280;58179;48.776;9.124;2022-10-10T08:50:58;97464.53;;;13.70;100.00
55914;BME280;58179;48.776;9.124;2022-10-10T08:53:30;97467.97;;;13.85;100.00
55914;BME280;58179;48.776;9.124;2022-10-10T08:55:57;97471.38;;;14.01;100.00
55914;BME280;58179;48.776;9.124;2022-10-10T08:58:27;97468.44;;;14.08;100.00
55914;BME280;58179;48.776;9.124;2022-10-10T09:01:03;97464.72;;;14.09;100.00
55914;BME280;58179;48.776;9.124;2022-10-10T09:03:36;97465.47;;;14.14;100.00
55914;BME280;58179;48.776;9.124;2022-10-10T09:06:21;97475.84;;;14.21;100.00
55914;BME280;58179;48.776;9.124;2022-10-10T09:08:58;97475.81;;;14.31;100.00
55914;BME280;58179;48.776;9.124;2022-10-10T09:11:42;97475.00;;;14.30;100.00
55914;BME280;58179;48.776;9.124;2022-10-10T09:14:25;97471.56;;;14.40;100.00
55914;BME280;58179;48.776;9.124;2022-10-10T09:17:02;97471.47;;;14.55;100.00
55914;BME280;58179;48.776;9.124;2022-10-10T09:19:43;97477.97;;;14.88;100.00
55914;BME280;58179;48.776;9.124;2022-10-10T09:22:15;97475.41;;;14.73;99.62
55914;BME280;58179;48.776;9.124;2022-10-10T09:24:45;97482.78;;;14.81;100.00
55914;BME280;58179;48.776;9.124;2022-10-10T09:27:27;97484.59;;;14.91;99.08
55914;BME280;58179;48.776;9.124;2022-10-10T09:30:00;97479.09;;;14.77;98.42
55914;BME280;58179;48.776;9.124;2022-10-10T09:32:32;97483.34;;;14.78;99.98
55914;BME280;58179;48.776;9.124;2022-10-10T09:35:11;97485.75;;;14.80;100.00
55914;BME280;58179;48.776;9.124;2022-10-10T09:37:39;97488.00;;;15.01;100.00
55914;BME280;58179;48.776;9.124;2022-10-10T09:40:14;97490.56;;;15.17;100.00
55914;BME280;58179;48.776;9.124;2022-10-10T09:42:48;97490.97;;;15.34;99.54
55914;BME280;58179;48.776;9.124;2022-10-10T09:45:18;97490.16;;;15.38;98.20
55914;BME280;58179;48.776;9.124;2022-10-10T09:47:47;97486.88;;;15.46;97.50
55914;BME280;58179;48.776;9.124;2022-10-10T09:50:16;97489.47;;;15.57;97.46
55914;BME280;58179;48.776;9.124;2022-10-10T09:52:42;97486.19;;;15.70;96.21
55914;BME280;58179;48.776;9.124;2022-10-10T09:55:22;97496.88;;;15.65;95.24
55914;BME280;58179;48.776;9.124;2022-10-10T09:57:51;97487.84;;;15.61;94.85
55914;BME280;58179;48.776;9.124;2022-10-10T10:00:33;97487.56;;;15.62;93.32
55914;BME280;58179;48.776;9.124;2022-10-10T10:03:12;97490.47;;;15.66;93.22
55914;BME280;58179;48.776;9.124;2022-10-10T10:05:43;97492.78;;;15.77;93.98
55914;BME280;58179;48.776;9.124;2022-10-10T10:08:24;97494.94;;;15.75;94.87
55914;BME280;58179;48.776;9.124;2022-10-10T10:10:51;97492.91;;;15.91;94.50
55914;BME280;58179;48.776;9.124;2022-10-10T10:13:26;97497.53;;;15.80;92.28
55914;BME280;58179;48.776;9.124;2022-10-10T10:16:03;97490.91;;;15.78;92.70
55914;BME280;58179;48.776;9.124;2022-10-10T10:18:36;97496.53;;;15.76;93.17
55914;BME280;58179;48.776;9.124;2022-10-10T10:21:20;97490.09;;;15.77;91.91
55914;BME280;58179;48.776;9.124;2022-10-10T10:23:55;97494.53;;;16.16;92.45
55914;BME280;58179;48.776;9.124;2022-10-10T10:26:28;97489.56;;;16.04;93.29
55914;BME280;58179;48.776;9.124;2022-10-10T10:28:57;97492.13;;;16.38;92.26
55914;BME280;58179;48.776;9.124;2022-10-10T10:31:51;97489.94;;;16.40;91.85
55914;BME280;58179;48.776;9.124;2022-10-10T10:34:42;97492.41;;;16.37;90.27
55914;BME280;58179;48.776;9.124;2022-10-10T10:37:20;97491.78;;;16.45;90.53
55914;BME280;58179;48.776;9.124;2022-10-10T10:40:14;97495.09;;;16.55;91.23
55914;BME280;58179;48.776;9.124;2022-10-10T10:43:07;97495.19;;;16.50;91.43
55914;BME280;58179;48.776;9.124;2022-10-10T10:45:45;97496.13;;;16.59;93.08
55914;BME280;58179;48.776;9.124;2022-10-10T10:48:26;97492.41;;;16.60;90.86
55914;BME280;58179;48.776;9.124;2022-10-10T10:50:55;97494.09;;;16.51;90.15
55914;BME280;58179;48.776;9.124;2022-10-10T10:53:36;97492.41;;;16.37;90.55
55914;BME280;58179;48.776;9.124;2022-10-10T10:56:16;97489.78;;;16.32;87.79
55914;BME280;58179;48.776;9.124;2022-10-10T11:02:24;97496.66;;;16.61;89.42
55914;BME280;58179;48.776;9.124;2022-10-10T11:05:04;97491.47;;;17.08;86.88
55914;BME280;58179;48.776;9.124;2022-10-10T11:07:45;97495.13;;;16.98;82.81
55914;BME280;58179;48.776;9.124;2022-10-10T11:10:21;97483.88;;;17.15;86.38
55914;BME280;58179;48.776;9.124;2022-10-10T11:12:59;97493.44;;;17.21;85.93
55914;BME280;58179;48.776;9.124;2022-10-10T11:15:31;97482.75;;;17.72;82.93
55914;BME280;58179;48.776;9.124;2022-10-10T11:18:04;97478.28;;;17.49;80.75
55914;BME280;58179;48.776;9.124;2022-10-10T11:20:39;97478.78;;;17.51;80.05
55914;BME280;58179;48.776;9.124;2022-10-10T11:23:12;97473.34;;;17.56;79.80
55914;BME280;58179;48.776;9.124;2022-10-10T11:25:46;97470.38;;;17.57;81.73
55914;BME280;58179;48.776;9.124;2022-10-10T11:28:17;97469.25;;;17.77;83.73
55914;BME280;58179;48.776;9.124;2022-10-10T11:30:50;97463.22;;;17.71;79.13
55914;BME280;58179;48.776;9.124;2022-10-10T11:33:22;97471.44;;;17.75;78.34
55914;BME280;58179;48.776;9.124;2022-10-10T11:35:54;97464.00;;;17.72;79.42
55914;BME280;58179;48.776;9.124;2022-10-10T11:38:27;97466.97;;;17.70;80.46
55914;BME280;58179;48.776;9.124;2022-10-10T11:41:00;97455.88;;;17.91;79.77
55914;BME280;58179;48.776;9.124;2022-10-10T11:43:36;97453.53;;;18.03;79.97
55914;BME280;58179;48.776;9.124;2022-10-10T11:46:15;97456.31;;;18.11;80.10
55914;BME280;58179;48.776;9.124;2022-10-10T11:48:52;97451.72;;;18.12;78.85
55914;BME280;58179;48.776;9.124;2022-10-10T11:51:33;97441.31;;;18.10;80.36
55914;BME280;58179;48.776;9.124;2022-10-10T11:54:12;97449.47;;;18.33;77.10
55914;BME280;58179;48.776;9.124;2022-10-10T11:56:44;97444.19;;;18.14;74.32
55914;BME280;58179;48.776;9.124;2022-10-10T11:59:21;97445.88;;;17.96;74.84
55914;BME280;58179;48.776;9.124;2022-10-10T12:01:52;97442.41;;;17.96;79.95
55914;BME280;58179;48.776;9.124;2022-10-10T12:04:20;97436.06;;;17.92;82.60
55914;BME280;58179;48.776;9.124;2022-10-10T12:06:51;97437.47;;;17.89;83.29
55914;BME280;58179;48.776;9.124;2022-10-10T12:09:24;97432.09;;;17.89;83.83
55914;BME280;58179;48.776;9.124;2022-10-10T12:11:58;97429.31;;;17.94;84.55
55914;BME280;58179;48.776;9.124;2022-10-10T12:14:27;97433.59;;;18.09;85.67
55914;BME280;58179;48.776;9.124;2022-10-10T12:16:56;97429.75;;;18.51;83.25
55914;BME280;58179;48.776;9.124;2022-10-10T12:19:24;97430.16;;;18.58;82.45
55914;BME280;58179;48.776;9.124;2022-10-10T12:21:55;97429.97;;;18.54;80.76
55914;BME280;58179;48.776;9.124;2022-10-10T12:24:24;97428.28;;;18.59;81.45
55914;BME280;58179;48.776;9.124;2022-10-10T12:27:28;97427.88;;;18.65;79.94
55914;BME280;58179;48.776;9.124;2022-10-10T12:30:20;97425.31;;;18.60;80.47
55914;BME280;58179;48.776;9.124;2022-10-10T12:32:47;97423.47;;;18.83;78.95
55914;BME280;58179;48.776;9.124;2022-10-10T12:35:42;97430.00;;;18.90;80.01
55914;BME280;58179;48.776;9.124;2022-10-10T12:38:21;97423.91;;;19.21;76.82
55914;BME280;58179;48.776;9.124;2022-10-10T12:41:09;97421.94;;;19.35;78.85
55914;BME280;58179;48.776;9.124;2022-10-10T12:43:47;97424.50;;;19.40;68.89
55914;BME280;58179;48.776;9.124;2022-10-10T12:46:21;97421.94;;;19.35;69.01
55914;BME280;58179;48.776;9.124;2022-10-10T12:49:03;97420.72;;;19.41;70.93
55914;BME280;58179;48.776;9.124;2022-10-10T12:51:33;97424.19;;;19.64;73.58
55914;BME280;58179;48.776;9.124;2022-10-10T12:54:04;97426.88;;;19.64;75.85
55914;BME280;58179;48.776;9.124;2022-10-10T12:56:42;97438.19;;;19.52;76.89
55914;BME280;58179;48.776;9.124;2022-10-10T12:59:21;97435.94;;;19.46;78.69
55914;BME280;58179;48.776;9.124;2022-10-10T13:01:54;97437.63;;;19.42;77.14
55914;BME280;58179;48.776;9.124;2022-10-10T13:04:23;97436.72;;;19.24;77.78
55914;BME280;58179;48.776;9.124;2022-10-10T13:06:54;97441.97;;;19.07;79.08
55914;BME280;58179;48.776;9.124;2022-10-10T13:09:24;97432.69;;;18.90;80.07
55914;BME280;58179;48.776;9.124;2022-10-10T13:11:54;97430.16;;;18.72;80.48
55914;BME280;58179;48.776;9.124;2022-10-10T13:14:23;97432.94;;;18.53;81.01